Enter the Airport ICAO Code

Search by Airport or City

Current Weather

LFML | Marseille Provence Airport

Marseille, Provence-Alpes-Côte d'Azur, France

Last Update 15 Minutes Ago

Clear Sky

Temperature of 26 ºC

Light to Moderate Winds from West

Temperature

26 ºC

Dew Point Temperature

14 ºC

Relative Humidity

47.76 %

Wind Direction

West (260º, Without Significant Variations)

Wind Velocity

15 km/h (08 kt)

Gusts

None

Visibility

No Significant Reductions

Sea Level Pressure

1021 hPa (Hectopascals)

Layers of Clouds

None

METAR LFML 211300Z AUTO 26008KT CAVOK 26/14 Q1021 TEMPO SHRA SCT040TCU

Weather Forecast

LFML | Marseille Provence Airport

Marseille, Provence-Alpes-Côte d'Azur, France

Forecast valid for the next 26 Hours

From now on it is expected:

Clear Sky

Moderate Winds from NorthWest

From now on it is expected 4 hours with intermittent periods of:

Rain

Moderate Winds from SouthWest

In 5 to 7 hours it is expected the begining of:

Light Winds from Variable Directions

In 21 to 23 hours it is expected the begining of:

Moderate Winds from West

Maximum Temperature

26 ºC in 0 Hours

Minimum Temperature

13 ºC in 16 Hours

TAF LFML 210800Z 2109/2215 30010KT CAVOK TX26/2113Z TN13/2205Z PROB40 TEMPO 2112/2117 21010KT SHRA SCT040TCU BECMG 2118/2120 VRB03KT BECMG 2210/2212 27010KT